sensor_id;sensor_type;location;lat;lon;timestamp;pressure;altitude;pressure_sealevel;temperature;humidity
34235;BME280;20500;49.856;20.290;2022-11-03T00:02:32;99634.44;;;10.91;71.62
34235;BME280;20500;49.856;20.290;2022-11-03T00:05:37;99637.20;;;10.80;71.85
34235;BME280;20500;49.856;20.290;2022-11-03T00:09:02;99632.86;;;10.65;71.90
34235;BME280;20500;49.856;20.290;2022-11-03T00:12:09;99629.04;;;10.53;71.90
34235;BME280;20500;49.856;20.290;2022-11-03T00:15:13;99635.15;;;10.47;71.97
34235;BME280;20500;49.856;20.290;2022-11-03T00:18:20;99635.28;;;10.41;71.85
34235;BME280;20500;49.856;20.290;2022-11-03T00:21:24;99634.56;;;10.29;71.84
34235;BME280;20500;49.856;20.290;2022-11-03T00:24:30;99638.02;;;10.16;71.85
34235;BME280;20500;49.856;20.290;2022-11-03T00:27:35;99634.25;;;10.03;72.09
34235;BME280;20500;49.856;20.290;2022-11-03T00:30:41;99636.43;;;9.95;72.08
34235;BME280;20500;49.856;20.290;2022-11-03T00:33:46;99640.73;;;9.87;72.10
34235;BME280;20500;49.856;20.290;2022-11-03T00:36:52;99646.29;;;9.77;72.12
34235;BME280;20500;49.856;20.290;2022-11-03T00:39:57;99648.98;;;9.70;72.34
34235;BME280;20500;49.856;20.290;2022-11-03T00:43:03;99652.35;;;9.66;72.56
34235;BME280;20500;49.856;20.290;2022-11-03T00:46:10;99651.84;;;9.61;72.35
34235;BME280;20500;49.856;20.290;2022-11-03T00:49:16;99650.88;;;9.53;72.23
34235;BME280;20500;49.856;20.290;2022-11-03T00:52:23;99651.66;;;9.45;72.36
34235;BME280;20500;49.856;20.290;2022-11-03T00:55:27;99653.87;;;9.42;72.62
34235;BME280;20500;49.856;20.290;2022-11-03T00:58:33;99648.85;;;9.38;72.57
34235;BME280;20500;49.856;20.290;2022-11-03T01:01:41;99643.99;;;9.32;72.38
34235;BME280;20500;49.856;20.290;2022-11-03T01:04:51;99642.75;;;9.26;72.67
34235;BME280;20500;49.856;20.290;2022-11-03T01:08:14;99642.52;;;9.23;72.83
34235;BME280;20500;49.856;20.290;2022-11-03T01:11:19;99642.21;;;9.23;72.82
34235;BME280;20500;49.856;20.290;2022-11-03T01:14:45;99641.73;;;9.21;73.05
34235;BME280;20500;49.856;20.290;2022-11-03T01:17:51;99645.55;;;9.20;72.96
34235;BME280;20500;49.856;20.290;2022-11-03T01:20:58;99650.31;;;9.22;73.21
34235;BME280;20500;49.856;20.290;2022-11-03T01:24:05;99652.02;;;9.23;72.95
34235;BME280;20500;49.856;20.290;2022-11-03T01:27:12;99652.27;;;9.20;73.04
34235;BME280;20500;49.856;20.290;2022-11-03T01:30:19;99656.02;;;9.19;73.11
34235;BME280;20500;49.856;20.290;2022-11-03T01:33:25;99654.60;;;9.17;73.28
34235;BME280;20500;49.856;20.290;2022-11-03T01:36:31;99655.04;;;9.16;73.36
34235;BME280;20500;49.856;20.290;2022-11-03T01:39:36;99654.41;;;9.15;73.34
34235;BME280;20500;49.856;20.290;2022-11-03T01:42:42;99651.70;;;9.15;73.44
34235;BME280;20500;49.856;20.290;2022-11-03T01:45:50;99650.00;;;9.11;73.38
34235;BME280;20500;49.856;20.290;2022-11-03T01:49:00;99651.05;;;9.02;73.39
34235;BME280;20500;49.856;20.290;2022-11-03T01:52:10;99650.52;;;8.93;73.43
34235;BME280;20500;49.856;20.290;2022-11-03T01:55:20;99651.23;;;8.83;73.55
34235;BME280;20500;49.856;20.290;2022-11-03T01:58:30;99655.08;;;8.79;73.59
34235;BME280;20500;49.856;20.290;2022-11-03T02:01:38;99648.73;;;8.75;73.60
34235;BME280;20500;49.856;20.290;2022-11-03T02:04:45;99648.67;;;8.69;73.69
34235;BME280;20500;49.856;20.290;2022-11-03T02:07:54;99655.05;;;8.62;73.42
34235;BME280;20500;49.856;20.290;2022-11-03T02:11:04;99651.92;;;8.48;73.37
34235;BME280;20500;49.856;20.290;2022-11-03T02:14:30;99647.63;;;8.37;73.69
34235;BME280;20500;49.856;20.290;2022-11-03T02:17:37;99650.46;;;8.29;73.71
34235;BME280;20500;49.856;20.290;2022-11-03T02:20:46;99647.38;;;8.24;73.70
34235;BME280;20500;49.856;20.290;2022-11-03T02:23:58;99649.15;;;8.19;73.65
34235;BME280;20500;49.856;20.290;2022-11-03T02:27:08;99651.91;;;8.08;73.69
34235;BME280;20500;49.856;20.290;2022-11-03T02:30:14;99654.91;;;7.97;73.69
34235;BME280;20500;49.856;20.290;2022-11-03T02:33:28;99660.08;;;7.87;73.54
34235;BME280;20500;49.856;20.290;2022-11-03T02:36:39;99659.73;;;7.76;73.68
34235;BME280;20500;49.856;20.290;2022-11-03T02:39:48;99662.25;;;7.67;73.64
34235;BME280;20500;49.856;20.290;2022-11-03T02:42:58;99661.77;;;7.59;73.67
34235;BME280;20500;49.856;20.290;2022-11-03T02:46:06;99661.36;;;7.52;73.85
34235;BME280;20500;49.856;20.290;2022-11-03T02:49:13;99661.81;;;7.47;73.82
34235;BME280;20500;49.856;20.290;2022-11-03T02:52:37;99665.61;;;7.45;73.92
34235;BME280;20500;49.856;20.290;2022-11-03T02:55:50;99665.63;;;7.38;73.89
34235;BME280;20500;49.856;20.290;2022-11-03T02:59:02;99664.15;;;7.28;73.91
34235;BME280;20500;49.856;20.290;2022-11-03T03:02:23;99667.49;;;7.22;73.78
34235;BME280;20500;49.856;20.290;2022-11-03T03:05:33;99672.16;;;7.15;73.89
34235;BME280;20500;49.856;20.290;2022-11-03T03:08:45;99673.88;;;7.10;73.98
34235;BME280;20500;49.856;20.290;2022-11-03T03:11:54;99673.51;;;7.08;74.09
34235;BME280;20500;49.856;20.290;2022-11-03T03:15:02;99674.15;;;7.01;73.91
34235;BME280;20500;49.856;20.290;2022-11-03T03:18:18;99672.08;;;6.91;73.86
34235;BME280;20500;49.856;20.290;2022-11-03T03:21:28;99670.99;;;6.81;74.16
34235;BME280;20500;49.856;20.290;2022-11-03T03:24:43;99670.58;;;6.76;74.19
34235;BME280;20500;49.856;20.290;2022-11-03T03:27:57;99671.02;;;6.69;74.10
34235;BME280;20500;49.856;20.290;2022-11-03T03:31:09;99672.60;;;6.64;74.08
34235;BME280;20500;49.856;20.290;2022-11-03T03:34:20;99672.15;;;6.61;73.98
34235;BME280;20500;49.856;20.290;2022-11-03T03:37:42;99674.56;;;6.54;73.89
34235;BME280;20500;49.856;20.290;2022-11-03T03:40:52;99676.06;;;6.46;74.11
34235;BME280;20500;49.856;20.290;2022-11-03T03:44:03;99674.63;;;6.38;74.23
34235;BME280;20500;49.856;20.290;2022-11-03T03:47:14;99672.33;;;6.33;74.26
34235;BME280;20500;49.856;20.290;2022-11-03T03:50:24;99669.27;;;6.27;74.12
34235;BME280;20500;49.856;20.290;2022-11-03T03:53:31;99671.39;;;6.27;74.55
34235;BME280;20500;49.856;20.290;2022-11-03T03:56:42;99674.17;;;6.31;74.54
34235;BME280;20500;49.856;20.290;2022-11-03T03:59:52;99674.64;;;6.31;74.22
34235;BME280;20500;49.856;20.290;2022-11-03T04:02:58;99669.92;;;6.26;74.28
34235;BME280;20500;49.856;20.290;2022-11-03T04:06:03;99667.89;;;6.19;74.22
34235;BME280;20500;49.856;20.290;2022-11-03T04:09:09;99670.09;;;6.08;74.07
34235;BME280;20500;49.856;20.290;2022-11-03T04:12:15;99668.13;;;5.98;74.10
34235;BME280;20500;49.856;20.290;2022-11-03T04:15:39;99661.73;;;5.91;74.27
34235;BME280;20500;49.856;20.290;2022-11-03T04:19:03;99665.93;;;5.84;74.27
34235;BME280;20500;49.856;20.290;2022-11-03T04:22:28;99666.02;;;5.83;74.24
34235;BME280;20500;49.856;20.290;2022-11-03T04:25:35;99666.98;;;5.79;74.44
34235;BME280;20500;49.856;20.290;2022-11-03T04:28:41;99666.10;;;5.76;74.14
34235;BME280;20500;49.856;20.290;2022-11-03T04:31:48;99665.80;;;5.68;74.11
34235;BME280;20500;49.856;20.290;2022-11-03T04:34:54;99665.46;;;5.59;74.10
34235;BME280;20500;49.856;20.290;2022-11-03T04:38:03;99661.30;;;5.47;73.96
34235;BME280;20500;49.856;20.290;2022-11-03T04:41:16;99662.08;;;5.36;74.19
34235;BME280;20500;49.856;20.290;2022-11-03T04:44:23;99662.81;;;5.30;74.20
34235;BME280;20500;49.856;20.290;2022-11-03T04:47:30;99658.13;;;5.24;74.29
34235;BME280;20500;49.856;20.290;2022-11-03T04:50:36;99657.53;;;5.20;74.30
34235;BME280;20500;49.856;20.290;2022-11-03T04:53:53;99658.86;;;5.15;74.22
34235;BME280;20500;49.856;20.290;2022-11-03T04:57:00;99663.45;;;5.08;74.26
34235;BME280;20500;49.856;20.290;2022-11-03T05:00:15;99665.38;;;5.02;74.28
34235;BME280;20500;49.856;20.290;2022-11-03T05:03:23;99667.22;;;4.98;74.48
34235;BME280;20500;49.856;20.290;2022-11-03T05:06:30;99669.92;;;4.96;74.56
34235;BME280;20500;49.856;20.290;2022-11-03T05:09:36;99666.27;;;4.92;74.66
34235;BME280;20500;49.856;20.290;2022-11-03T05:12:47;99666.29;;;4.90;74.65
34235;BME280;20500;49.856;20.290;2022-11-03T05:15:56;99667.71;;;4.86;74.74
34235;BME280;20500;49.856;20.290;2022-11-03T05:19:10;99674.02;;;4.81;74.63
34235;BME280;20500;49.856;20.290;2022-11-03T05:22:19;99678.48;;;4.76;74.72
34235;BME280;20500;49.856;20.290;2022-11-03T05:25:39;99681.83;;;4.74;75.01
34235;BME280;20500;49.856;20.290;2022-11-03T05:28:47;99683.78;;;4.75;74.99
34235;BME280;20500;49.856;20.290;2022-11-03T05:31:56;99682.98;;;4.73;74.89
34235;BME280;20500;49.856;20.290;2022-11-03T05:35:02;99679.64;;;4.68;74.72
34235;BME280;20500;49.856;20.290;2022-11-03T05:38:14;99679.15;;;4.63;74.79
34235;BME280;20500;49.856;20.290;2022-11-03T05:41:23;99674.95;;;4.60;74.81
34235;BME280;20500;49.856;20.290;2022-11-03T05:44:33;99672.80;;;4.55;74.97
34235;BME280;20500;49.856;20.290;2022-11-03T05:47:40;99675.56;;;4.53;74.76
34235;BME280;20500;49.856;20.290;2022-11-03T05:50:47;99670.14;;;4.55;75.00
34235;BME280;20500;49.856;20.290;2022-11-03T05:53:55;99674.38;;;4.54;74.84
34235;BME280;20500;49.856;20.290;2022-11-03T05:57:03;99671.77;;;4.47;74.64
34235;BME280;20500;49.856;20.290;2022-11-03T06:00:25;99675.02;;;4.40;74.78
34235;BME280;20500;49.856;20.290;2022-11-03T06:03:36;99678.45;;;4.35;74.80
34235;BME280;20500;49.856;20.290;2022-11-03T06:06:42;99681.42;;;4.32;74.90
34235;BME280;20500;49.856;20.290;2022-11-03T06:09:52;99679.64;;;4.30;74.91
34235;BME280;20500;49.856;20.290;2022-11-03T06:13:03;99677.63;;;4.28;75.10
34235;BME280;20500;49.856;20.290;2022-11-03T06:16:28;99679.59;;;4.28;75.10
34235;BME280;20500;49.856;20.290;2022-11-03T06:19:38;99680.74;;;4.27;75.06
34235;BME280;20500;49.856;20.290;2022-11-03T06:22:45;99687.42;;;4.25;75.18
34235;BME280;20500;49.856;20.290;2022-11-03T06:25:53;99679.14;;;4.23;75.33
34235;BME280;20500;49.856;20.290;2022-11-03T06:29:00;99681.91;;;4.22;75.28
34235;BME280;20500;49.856;20.290;2022-11-03T06:32:10;99681.63;;;4.23;75.46
34235;BME280;20500;49.856;20.290;2022-11-03T06:35:18;99679.22;;;4.24;75.38
34235;BME280;20500;49.856;20.290;2022-11-03T06:38:27;99680.71;;;4.23;75.40
34235;BME280;20500;49.856;20.290;2022-11-03T06:41:36;99682.99;;;4.24;75.51
34235;BME280;20500;49.856;20.290;2022-11-03T06:44:45;99682.38;;;4.25;75.70
34235;BME280;20500;49.856;20.290;2022-11-03T06:47:52;99684.51;;;4.25;75.61
34235;BME280;20500;49.856;20.290;2022-11-03T06:50:59;99685.96;;;4.27;75.75
34235;BME280;20500;49.856;20.290;2022-11-03T06:54:10;99686.75;;;4.31;75.73
34235;BME280;20500;49.856;20.290;2022-11-03T06:57:17;99686.26;;;4.32;75.71
34235;BME280;20500;49.856;20.290;2022-11-03T07:00:25;99687.22;;;4.33;75.83
34235;BME280;20500;49.856;20.290;2022-11-03T07:03:43;99691.09;;;4.36;75.97
34235;BME280;20500;49.856;20.290;2022-11-03T07:06:50;99690.64;;;4.40;76.16
34235;BME280;20500;49.856;20.290;2022-11-03T07:09:57;99692.95;;;4.45;76.16
34235;BME280;20500;49.856;20.290;2022-11-03T07:13:11;99694.84;;;4.50;76.22
34235;BME280;20500;49.856;20.290;2022-11-03T07:16:21;99695.88;;;4.55;76.43
34235;BME280;20500;49.856;20.290;2022-11-03T07:19:32;99689.04;;;4.61;76.49
34235;BME280;20500;49.856;20.290;2022-11-03T07:22:39;99683.16;;;4.69;76.59
34235;BME280;20500;49.856;20.290;2022-11-03T07:25:46;99686.63;;;4.75;76.70
34235;BME280;20500;49.856;20.290;2022-11-03T07:28:55;99677.61;;;4.81;76.85
34235;BME280;20500;49.856;20.290;2022-11-03T07:32:04;99674.83;;;4.89;76.99
34235;BME280;20500;49.856;20.290;2022-11-03T07:35:27;99673.84;;;4.98;77.22
34235;BME280;20500;49.856;20.290;2022-11-03T07:38:57;99667.04;;;5.08;77.11
34235;BME280;20500;49.856;20.290;2022-11-03T07:42:12;99665.02;;;5.17;77.07
34235;BME280;20500;49.856;20.290;2022-11-03T07:45:38;99658.81;;;5.24;77.22
34235;BME280;20500;49.856;20.290;2022-11-03T07:48:46;99658.65;;;5.32;77.38
34235;BME280;20500;49.856;20.290;2022-11-03T07:51:53;99654.46;;;5.39;77.44
34235;BME280;20500;49.856;20.290;2022-11-03T07:55:00;99651.36;;;5.48;77.46
34235;BME280;20500;49.856;20.290;2022-11-03T07:58:18;99648.83;;;5.54;77.60
34235;BME280;20500;49.856;20.290;2022-11-03T08:01:30;99646.98;;;5.62;77.77
34235;BME280;20500;49.856;20.290;2022-11-03T08:04:37;99643.02;;;5.71;77.83
34235;BME280;20500;49.856;20.290;2022-11-03T08:07:44;99637.20;;;5.79;77.97
34235;BME280;20500;49.856;20.290;2022-11-03T08:10:48;99633.70;;;5.88;78.15
34235;BME280;20500;49.856;20.290;2022-11-03T08:13:55;99627.77;;;5.98;78.28
34235;BME280;20500;49.856;20.290;2022-11-03T08:17:01;99622.67;;;6.09;78.35
34235;BME280;20500;49.856;20.290;2022-11-03T08:20:09;99620.33;;;6.19;78.47
34235;BME280;20500;49.856;20.290;2022-11-03T08:23:15;99611.33;;;6.30;78.58
34235;BME280;20500;49.856;20.290;2022-11-03T08:26:30;99604.86;;;6.42;78.69
34235;BME280;20500;49.856;20.290;2022-11-03T08:29:36;99598.63;;;6.52;78.67
34235;BME280;20500;49.856;20.290;2022-11-03T08:32:42;99590.77;;;6.63;78.85
34235;BME280;20500;49.856;20.290;2022-11-03T08:35:47;99583.11;;;6.74;78.89
34235;BME280;20500;49.856;20.290;2022-11-03T08:38:53;99577.84;;;6.85;79.03
34235;BME280;20500;49.856;20.290;2022-11-03T08:41:59;99574.96;;;6.98;79.16
34235;BME280;20500;49.856;20.290;2022-11-03T08:45:05;99571.49;;;7.14;79.34
34235;BME280;20500;49.856;20.290;2022-11-03T08:48:11;99571.20;;;7.26;79.40
34235;BME280;20500;49.856;20.290;2022-11-03T08:51:16;99568.31;;;7.39;79.55
34235;BME280;20500;49.856;20.290;2022-11-03T08:54:22;99566.51;;;7.49;79.50
34235;BME280;20500;49.856;20.290;2022-11-03T08:57:26;99563.33;;;7.63;79.69
34235;BME280;20500;49.856;20.290;2022-11-03T09:00:33;99559.74;;;7.75;79.79
34235;BME280;20500;49.856;20.290;2022-11-03T09:03:44;99553.58;;;7.88;79.84
34235;BME280;20500;49.856;20.290;2022-11-03T09:06:49;99542.98;;;8.00;79.82
34235;BME280;20500;49.856;20.290;2022-11-03T09:09:55;99538.54;;;8.12;79.69
34235;BME280;20500;49.856;20.290;2022-11-03T09:13:21;99537.20;;;8.23;79.55
34235;BME280;20500;49.856;20.290;2022-11-03T09:16:27;99538.86;;;8.41;79.59
34235;BME280;20500;49.856;20.290;2022-11-03T09:19:34;99537.67;;;8.61;79.64
34235;BME280;20500;49.856;20.290;2022-11-03T09:22:40;99531.31;;;8.84;79.43
34235;BME280;20500;49.856;20.290;2022-11-03T09:25:46;99529.75;;;9.04;79.32
34235;BME280;20500;49.856;20.290;2022-11-03T09:28:52;99520.08;;;9.25;79.21
34235;BME280;20500;49.856;20.290;2022-11-03T09:31:58;99520.55;;;9.38;78.99
34235;BME280;20500;49.856;20.290;2022-11-03T09:35:05;99517.87;;;9.48;79.03
34235;BME280;20500;49.856;20.290;2022-11-03T09:38:12;99514.41;;;9.55;78.78
34235;BME280;20500;49.856;20.290;2022-11-03T09:41:18;99514.73;;;9.64;78.64
34235;BME280;20500;49.856;20.290;2022-11-03T09:44:45;99507.96;;;9.81;78.63
34235;BME280;20500;49.856;20.290;2022-11-03T09:47:54;99505.02;;;9.98;78.30
34235;BME280;20500;49.856;20.290;2022-11-03T09:51:01;99502.39;;;10.10;78.15
34235;BME280;20500;49.856;20.290;2022-11-03T09:54:09;99495.13;;;10.24;78.04
34235;BME280;20500;49.856;20.290;2022-11-03T09:57:17;99488.10;;;10.35;77.82
34235;BME280;20500;49.856;20.290;2022-11-03T10:00:24;99487.75;;;10.49;77.71
34235;BME280;20500;49.856;20.290;2022-11-03T10:03:31;99484.41;;;10.60;77.51
34235;BME280;20500;49.856;20.290;2022-11-03T10:06:37;99482.73;;;10.66;77.14
34235;BME280;20500;49.856;20.290;2022-11-03T10:09:45;99478.54;;;10.73;77.31
34235;BME280;20500;49.856;20.290;2022-11-03T10:12:53;99480.27;;;10.87;77.02
34235;BME280;20500;49.856;20.290;2022-11-03T10:16:00;99473.42;;;10.96;76.85
34235;BME280;20500;49.856;20.290;2022-11-03T10:19:12;99463.44;;;11.04;76.79
34235;BME280;20500;49.856;20.290;2022-11-03T10:22:19;99457.39;;;11.12;76.35
34235;BME280;20500;49.856;20.290;2022-11-03T10:25:37;99458.71;;;11.21;76.26
34235;BME280;20500;49.856;20.290;2022-11-03T10:28:57;99454.86;;;11.28;75.73
34235;BME280;20500;49.856;20.290;2022-11-03T10:32:08;99451.45;;;11.32;75.74
34235;BME280;20500;49.856;20.290;2022-11-03T10:35:34;99452.60;;;11.38;75.73
34235;BME280;20500;49.856;20.290;2022-11-03T10:38:40;99443.93;;;11.48;75.66
34235;BME280;20500;49.856;20.290;2022-11-03T10:41:56;99437.66;;;11.60;75.28
34235;BME280;20500;49.856;20.290;2022-11-03T10:45:14;99434.81;;;11.67;74.98
34235;BME280;20500;49.856;20.290;2022-11-03T10:48:21;99430.89;;;11.75;74.79
34235;BME280;20500;49.856;20.290;2022-11-03T10:51:30;99427.10;;;11.82;74.64
34235;BME280;20500;49.856;20.290;2022-11-03T10:54:36;99420.94;;;11.93;74.75
34235;BME280;20500;49.856;20.290;2022-11-03T10:57:43;99413.80;;;12.04;74.50
34235;BME280;20500;49.856;20.290;2022-11-03T11:00:56;99407.67;;;12.17;74.24
34235;BME280;20500;49.856;20.290;2022-11-03T11:04:02;99404.52;;;12.29;74.14
34235;BME280;20500;49.856;20.290;2022-11-03T11:07:20;99393.60;;;12.40;74.04
34235;BME280;20500;49.856;20.290;2022-11-03T11:10:29;99388.91;;;12.54;73.86
34235;BME280;20500;49.856;20.290;2022-11-03T11:13:36;99379.79;;;12.65;73.34
34235;BME280;20500;49.856;20.290;2022-11-03T11:16:52;99373.60;;;12.73;73.19
34235;BME280;20500;49.856;20.290;2022-11-03T11:23:46;99359.41;;;12.90;72.91
34235;BME280;20500;49.856;20.290;2022-11-03T11:26:53;99352.09;;;12.99;72.52
34235;BME280;20500;49.856;20.290;2022-11-03T11:29:59;99344.08;;;13.08;72.35
34235;BME280;20500;49.856;20.290;2022-11-03T11:33:20;99342.88;;;13.16;72.18
34235;BME280;20500;49.856;20.290;2022-11-03T11:36:27;99339.51;;;13.24;72.16
34235;BME280;20500;49.856;20.290;2022-11-03T11:39:46;99327.45;;;13.32;71.87
34235;BME280;20500;49.856;20.290;2022-11-03T11:43:26;99320.92;;;13.40;71.75
34235;BME280;20500;49.856;20.290;2022-11-03T11:46:39;99315.77;;;13.49;71.50
34235;BME280;20500;49.856;20.290;2022-11-03T11:49:46;99309.17;;;13.55;71.24
34235;BME280;20500;49.856;20.290;2022-11-03T11:52:56;99304.73;;;13.61;70.99
34235;BME280;20500;49.856;20.290;2022-11-03T11:56:03;99299.79;;;13.67;70.63
34235;BME280;20500;49.856;20.290;2022-11-03T11:59:17;99296.45;;;13.72;70.67
34235;BME280;20500;49.856;20.290;2022-11-03T12:02:30;99285.98;;;13.77;70.18
34235;BME280;20500;49.856;20.290;2022-11-03T12:05:36;99280.13;;;13.82;70.29
34235;BME280;20500;49.856;20.290;2022-11-03T12:08:43;99275.58;;;13.85;69.80
34235;BME280;20500;49.856;20.290;2022-11-03T12:11:50;99274.66;;;13.88;69.54
34235;BME280;20500;49.856;20.290;2022-11-03T12:15:00;99271.02;;;13.91;69.50
34235;BME280;20500;49.856;20.290;2022-11-03T12:18:29;99262.92;;;13.94;69.02
34235;BME280;20500;49.856;20.290;2022-11-03T12:21:52;99250.88;;;14.00;68.70
34235;BME280;20500;49.856;20.290;2022-11-03T12:25:00;99244.70;;;14.03;68.74
34235;BME280;20500;49.856;20.290;2022-11-03T12:28:07;99236.31;;;14.06;68.60
34235;BME280;20500;49.856;20.290;2022-11-03T12:31:14;99232.04;;;14.11;68.13
34235;BME280;20500;49.856;20.290;2022-11-03T12:34:18;99227.51;;;14.13;68.09
34235;BME280;20500;49.856;20.290;2022-11-03T12:37:24;99221.87;;;14.12;67.78
34235;BME280;20500;49.856;20.290;2022-11-03T12:40:30;99218.38;;;14.12;67.77
34235;BME280;20500;49.856;20.290;2022-11-03T12:43:35;99213.21;;;14.11;67.28
34235;BME280;20500;49.856;20.290;2022-11-03T12:46:41;99206.07;;;14.12;67.32
34235;BME280;20500;49.856;20.290;2022-11-03T12:49:45;99208.27;;;14.15;67.32
34235;BME280;20500;49.856;20.290;2022-11-03T12:52:52;99198.14;;;14.18;66.95
34235;BME280;20500;49.856;20.290;2022-11-03T12:55:56;99191.84;;;14.21;66.96
34235;BME280;20500;49.856;20.290;2022-11-03T12:59:02;99189.33;;;14.25;66.74
34235;BME280;20500;49.856;20.290;2022-11-03T13:02:08;99186.77;;;14.28;66.54
34235;BME280;20500;49.856;20.290;2022-11-03T13:05:15;99184.33;;;14.30;66.21
34235;BME280;20500;49.856;20.290;2022-11-03T13:08:21;99182.74;;;14.31;66.00
34235;BME280;20500;49.856;20.290;2022-11-03T13:11:28;99183.55;;;14.33;66.03
34235;BME280;20500;49.856;20.290;2022-11-03T13:14:52;99181.80;;;14.35;65.61
34235;BME280;20500;49.856;20.290;2022-11-03T13:18:16;99173.48;;;14.34;65.42
34235;BME280;20500;49.856;20.290;2022-11-03T13:21:22;99173.40;;;14.33;65.18
34235;BME280;20500;49.856;20.290;2022-11-03T13:24:26;99169.14;;;14.31;65.13
34235;BME280;20500;49.856;20.290;2022-11-03T13:27:33;99166.39;;;14.26;64.94
34235;BME280;20500;49.856;20.290;2022-11-03T13:30:39;99161.64;;;14.22;64.81
34235;BME280;20500;49.856;20.290;2022-11-03T13:33:43;99157.96;;;14.19;64.88
34235;BME280;20500;49.856;20.290;2022-11-03T13:36:50;99151.47;;;14.18;64.56
34235;BME280;20500;49.856;20.290;2022-11-03T13:39:54;99145.85;;;14.14;64.32
34235;BME280;20500;49.856;20.290;2022-11-03T13:43:00;99142.77;;;14.11;64.42
34235;BME280;20500;49.856;20.290;2022-11-03T13:46:07;99138.61;;;14.07;64.29
34235;BME280;20500;49.856;20.290;2022-11-03T13:49:13;99135.23;;;14.03;64.21
34235;BME280;20500;49.856;20.290;2022-11-03T13:52:39;99131.80;;;14.02;64.25
34235;BME280;20500;49.856;20.290;2022-11-03T13:55:46;99131.04;;;13.99;64.13
34235;BME280;20500;49.856;20.290;2022-11-03T13:58:52;99127.52;;;13.97;63.97
34235;BME280;20500;49.856;20.290;2022-11-03T14:02:18;99128.54;;;13.95;63.77
34235;BME280;20500;49.856;20.290;2022-11-03T14:05:45;99125.85;;;13.92;63.62
34235;BME280;20500;49.856;20.290;2022-11-03T14:08:51;99125.08;;;13.88;63.58
34235;BME280;20500;49.856;20.290;2022-11-03T14:11:57;99118.65;;;13.82;63.56
34235;BME280;20500;49.856;20.290;2022-11-03T14:15:21;99114.60;;;13.75;63.48
34235;BME280;20500;49.856;20.290;2022-11-03T14:18:27;99113.80;;;13.67;63.49
34235;BME280;20500;49.856;20.290;2022-11-03T14:21:32;99111.16;;;13.62;63.32
34235;BME280;20500;49.856;20.290;2022-11-03T14:24:41;99104.93;;;13.55;63.33
34235;BME280;20500;49.856;20.290;2022-11-03T14:27:48;99101.94;;;13.47;63.32
34235;BME280;20500;49.856;20.290;2022-11-03T14:30:54;99096.82;;;13.39;63.28
34235;BME280;20500;49.856;20.290;2022-11-03T14:34:03;99092.46;;;13.30;63.15
34235;BME280;20500;49.856;20.290;2022-11-03T14:37:10;99094.95;;;13.21;63.17
34235;BME280;20500;49.856;20.290;2022-11-03T14:40:17;99095.58;;;13.10;63.28
34235;BME280;20500;49.856;20.290;2022-11-03T14:43:37;99093.66;;;12.98;63.24
34235;BME280;20500;49.856;20.290;2022-11-03T14:46:43;99093.17;;;12.87;63.25
34235;BME280;20500;49.856;20.290;2022-11-03T14:49:49;99088.05;;;12.74;63.26
34235;BME280;20500;49.856;20.290;2022-11-03T14:52:56;99082.52;;;12.61;63.31
34235;BME280;20500;49.856;20.290;2022-11-03T14:56:04;99079.06;;;12.49;63.25
34235;BME280;20500;49.856;20.290;2022-11-03T14:59:10;99073.60;;;12.36;63.25
34235;BME280;20500;49.856;20.290;2022-11-03T15:02:14;99068.90;;;12.21;63.20
34235;BME280;20500;49.856;20.290;2022-11-03T15:05:21;99064.83;;;12.07;63.36
34235;BME280;20500;49.856;20.290;2022-11-03T15:08:50;99068.05;;;11.92;63.63
34235;BME280;20500;49.856;20.290;2022-11-03T15:12:00;99063.33;;;11.77;63.54
34235;BME280;20500;49.856;20.290;2022-11-03T15:15:06;99063.44;;;11.63;63.55
34235;BME280;20500;49.856;20.290;2022-11-03T15:18:12;99061.92;;;11.48;63.64
34235;BME280;20500;49.856;20.290;2022-11-03T15:21:18;99057.06;;;11.36;63.70
34235;BME280;20500;49.856;20.290;2022-11-03T15:24:25;99055.26;;;11.24;63.64
34235;BME280;20500;49.856;20.290;2022-11-03T15:27:51;99051.36;;;11.11;63.80
34235;BME280;20500;49.856;20.290;2022-11-03T15:30:55;99046.66;;;10.99;64.02
34235;BME280;20500;49.856;20.290;2022-11-03T15:34:01;99047.84;;;10.86;64.06
34235;BME280;20500;49.856;20.290;2022-11-03T15:37:12;99042.63;;;10.75;64.07
34235;BME280;20500;49.856;20.290;2022-11-03T15:40:19;99042.90;;;10.67;64.15
34235;BME280;20500;49.856;20.290;2022-11-03T15:43:25;99039.82;;;10.58;64.39
34235;BME280;20500;49.856;20.290;2022-11-03T15:46:31;99040.77;;;10.48;64.48
34235;BME280;20500;49.856;20.290;2022-11-03T15:49:39;99042.10;;;10.40;64.63
34235;BME280;20500;49.856;20.290;2022-11-03T15:52:45;99037.81;;;10.31;64.56
34235;BME280;20500;49.856;20.290;2022-11-03T15:55:51;99037.87;;;10.19;64.57
34235;BME280;20500;49.856;20.290;2022-11-03T15:58:56;99038.59;;;10.08;64.89
34235;BME280;20500;49.856;20.290;2022-11-03T16:02:02;99040.83;;;9.97;64.88
34235;BME280;20500;49.856;20.290;2022-11-03T16:05:28;99042.89;;;9.87;65.04
34235;BME280;20500;49.856;20.290;2022-11-03T16:08:32;99044.18;;;9.80;65.12
34235;BME280;20500;49.856;20.290;2022-11-03T16:11:39;99041.12;;;9.74;65.13
34235;BME280;20500;49.856;20.290;2022-11-03T16:14:43;99040.02;;;9.68;65.37
34235;BME280;20500;49.856;20.290;2022-11-03T16:17:49;99037.88;;;9.61;65.49
34235;BME280;20500;49.856;20.290;2022-11-03T16:20:55;99035.78;;;9.53;65.41
34235;BME280;20500;49.856;20.290;2022-11-03T16:24:01;99032.11;;;9.44;65.72
34235;BME280;20500;49.856;20.290;2022-11-03T16:27:06;99028.73;;;9.38;65.68
34235;BME280;20500;49.856;20.290;2022-11-03T16:30:14;99027.11;;;9.29;65.66
34235;BME280;20500;49.856;20.290;2022-11-03T16:33:20;99018.36;;;9.09;65.55
34235;BME280;20500;49.856;20.290;2022-11-03T16:36:24;99011.90;;;8.92;65.93
34235;BME280;20500;49.856;20.290;2022-11-03T16:39:31;99013.84;;;8.85;65.94
34235;BME280;20500;49.856;20.290;2022-11-03T16:42:37;99011.55;;;8.76;66.09